Flight Track Log - Related Links

Times and Time Zones

All times are in EDT time to prevent confusion due to time zone crossing. See the N317FL flight status page for this flight to view local times or setup timezone preferences in your user account.

Time Position Orientation Groundspeed Altitude Reporting Facility
EDT Latitude Longitude Course Direction KTS MPH feet Rate Location/Type
Tue 11:16:52 PM 41.7770 -87.7620 222° Southwest 147 169 1,500  Level FlightAware ADS-B
Tue 11:17:02 PM 41.7730 -87.7700 236° Southwest 150 173 2,200 2,100 Climbing FlightAware ADS-B
Tue 11:17:32 PM 41.7830 -87.7980 296° West 218 251 2,900 1,200 Climbing FlightAware ADS-B
Tue 11:17:42 PM 41.7940 -87.8010 349° North 237 273 3,000 1,333 Climbing FlightAware ADS-B
Tue 11:18:17 PM 41.8250 -87.7780 29° Northeast 237 273 3,900 1,333 Climbing FlightAware ADS-B
Tue 11:18:27 PM 41.8290 -87.7650 68° East 241 277 4,000 750 Climbing FlightAware ADS-B
Tue 11:18:57 PM 41.8340 -87.7160 82° East 268 308 4,400 2,900 Climbing FlightAware ADS-B
Tue 11:19:27 PM 41.8310 -87.6660 95° East 262 302 6,900 4,300 Climbing FlightAware ADS-B
Tue 11:19:57 PM 41.8250 -87.6170 99° East 277 319 8,700 3,600 Climbing FlightAware ADS-B
Tue 11:20:37 PM 41.8170 -87.5480 99° East 291 335 11,100 3,750 Climbing FlightAware ADS-B
Tue 11:21:17 PM 41.8080 -87.4730 99° East 297 342 13,700 3,741 Climbing FlightAware ADS-B
Tue 11:22:02 PM 41.7990 -87.3930 99° East 298 343 16,400 3,318 Climbing FlightAware ADS-B
Tue 11:22:42 PM 41.7910 -87.3180 98° East 312 359 18,400 2,025 Climbing FlightAware ADS-B
Tue 11:23:22 PM 41.7820 -87.2420 99° East 353 406 19,100 1,059 Climbing FlightAware ADS-B
Tue 11:24:07 PM 41.7700 -87.1290 98° East 394 453 19,900 1,875 Climbing FlightAware ADS-B
Tue 11:24:42 PM 41.7620 -87.0480 98° East 379 436 21,600 3,106 Climbing FlightAware ADS-B
Tue 11:25:32 PM 41.7640 -86.9340 89° East 358 412 24,300 2,667 Climbing FlightAware ADS-B
Tue 11:26:12 PM 41.7640 -86.8450 90° East 371 427 25,600 1,694 Climbing FlightAware ADS-B
Tue 11:26:57 PM 41.7650 -86.7390 89° East 389 448 26,700 1,482 Climbing FlightAware ADS-B
Tue 11:27:37 PM 41.7660 -86.6510 89° East 402 463 27,700 1,575 Climbing FlightAware ADS-B
Tue 11:28:17 PM 41.7670 -86.5410 89° East 411 473 28,800 1,575 Climbing FlightAware ADS-B
Tue 11:28:57 PM 41.7680 -86.4390 89° East 420 483 29,800 1,482 Climbing FlightAware ADS-B
Tue 11:29:42 PM 41.7690 -86.3170 89° East 427 491 30,900 1,467 Climbing FlightAware ADS-B
Tue 11:30:27 PM 41.7630 -86.2020 94° East 430 495 32,000 1,482 Climbing FlightAware ADS-B
Tue 11:31:07 PM 41.7550 -86.0960 96° East 429 494 33,000 1,500 Climbing FlightAware ADS-B
Tue 11:31:47 PM 41.7490 -85.9900 94° East 427 491 34,000 1,482 Climbing FlightAware ADS-B
Tue 11:32:32 PM 41.7410 -85.8690 95° East 424 488 35,100 1,482 Climbing FlightAware ADS-B
Tue 11:33:12 PM 41.7340 -85.7630 95° East 420 483 36,100 1,482 Climbing FlightAware ADS-B
Tue 11:33:57 PM 41.7270 -85.6510 95° East 415 478 37,200 1,482 Climbing FlightAware ADS-B
Tue 11:34:37 PM 41.7200 -85.5500 95° East 409 471 38,200 1,500 Climbing FlightAware ADS-B
Tue 11:35:17 PM 41.7130 -85.4510 95° East 399 459 39,200 1,482 Climbing FlightAware ADS-B
Tue 11:36:02 PM 41.7060 -85.3410 95° East 388 447 40,300 1,412 Climbing FlightAware ADS-B
Tue 11:36:42 PM 41.6990 -85.2430 95° East 382 440 41,200 988 Climbing FlightAware ADS-B
Tue 11:37:27 PM 41.6920 -85.1430 95° East 385 443 41,700 776 Climbing FlightAware ADS-B
Tue 11:38:07 PM 41.6860 -85.0470 95° East 386 444 42,300 825 Climbing FlightAware ADS-B
Tue 11:38:47 PM 41.6790 -84.9500 95° East 387 445 42,800 706 Climbing FlightAware ADS-B
Tue 11:39:32 PM 41.6700 -84.8460 97° East 387 445 43,300 776 Climbing FlightAware ADS-B
Tue 11:40:12 PM 41.6410 -84.7570 114° Southeast 384 442 43,900 776 Climbing FlightAware ADS-B
Tue 11:40:57 PM 41.6090 -84.6740 117° Southeast 383 441 44,400 776 Climbing FlightAware ADS-B
Tue 11:41:37 PM 41.5720 -84.5790 117° Southeast 381 438 45,000 424 Climbing FlightAware ADS-B
Tue 11:42:22 PM 41.5360 -84.4880 118° Southeast 393 452 45,000  Level FlightAware ADS-B
Tue 11:43:02 PM 41.5000 -84.3960 118° Southeast 404 465 45,000  Level FlightAware ADS-B
Tue 11:43:42 PM 41.4640 -84.3060 118° Southeast 415 478 45,000  Level FlightAware ADS-B
Tue 11:44:27 PM 41.4220 -84.2030 119° Southeast 425 489 45,000  Level FlightAware ADS-B
Tue 11:45:02 PM 41.3910 -84.1230 117° Southeast 431 496 45,000  Level FlightAware ADS-B
Tue 11:45:52 PM 41.3410 -84.0000 118° Southeast 440 506 45,000  Level FlightAware ADS-B
Tue 11:46:32 PM 41.3040 -83.9070 118° Southeast 444 511 45,000  Level FlightAware ADS-B
Tue 11:47:12 PM 41.2650 -83.8110 118° Southeast 446 513 45,000  Level FlightAware ADS-B
Tue 11:47:52 PM 41.2260 -83.7150 118° Southeast 445 512 45,000  Level FlightAware ADS-B
Tue 11:48:37 PM 41.1820 -83.6050 118° Southeast 443 510 45,000  Level FlightAware ADS-B
Tue 11:49:12 PM 41.1480 -83.5240 119° Southeast 442 509 45,000  Level FlightAware ADS-B
Tue 11:50:02 PM 41.0990 -83.4040 118° Southeast 441 507 45,000  Level FlightAware ADS-B
Tue 11:50:42 PM 41.0610 -83.3110 118° Southeast 440 506 45,000  Level FlightAware ADS-B
Tue 11:51:27 PM 41.0160 -83.2010 118° Southeast 438 504 45,000  Level FlightAware ADS-B
Tue 11:52:07 PM 40.9770 -83.1080 119° Southeast 437 503 45,000  Level FlightAware ADS-B
Tue 11:52:47 PM 40.9370 -83.0120 119° Southeast 437 503 45,000  Level FlightAware ADS-B
Tue 11:53:22 PM 40.9060 -82.9370 119° Southeast 436 502 45,000  Level FlightAware ADS-B
Tue 11:54:12 PM 40.8560 -82.8170 119° Southeast 436 502 45,000  Level FlightAware ADS-B
Tue 11:54:57 PM 40.8110 -82.7100 119° Southeast 436 502 45,000  Level FlightAware ADS-B
Tue 11:55:37 PM 40.7730 -82.6190 119° Southeast 435 501 45,000  Level FlightAware ADS-B
Tue 11:56:17 PM 40.7340 -82.5260 119° Southeast 436 502 45,000  Level FlightAware ADS-B
Tue 11:57:02 PM 40.6920 -82.4290 120° Southeast 436 502 45,000  Level FlightAware ADS-B
Tue 11:57:42 PM 40.6510 -82.3300 119° Southeast 436 502 45,000  Level FlightAware ADS-B
Tue 11:58:22 PM 40.6090 -82.2330 120° Southeast 435 501 45,000  Level FlightAware ADS-B
Tue 11:59:07 PM 40.5660 -82.1320 119° Southeast 435 501 45,000  Level FlightAware ADS-B
Tue 11:59:47 PM 40.5270 -82.0400 119° Southeast 435 501 45,000  Level FlightAware ADS-B
Wed 12:00:32 AM 40.4810 -81.9340 120° Southeast 436 502 45,000  Level FlightAware ADS-B
Wed 12:01:12 AM 40.4430 -81.8460 120° Southeast 436 502 45,000  Level FlightAware ADS-B
Wed 12:01:57 AM 40.3970 -81.7400 120° Southeast 436 502 45,000  Level FlightAware ADS-B
Wed 12:02:37 AM 40.3570 -81.6480 120° Southeast 435 501 45,000  Level FlightAware ADS-B
Wed 12:03:17 AM 40.3170 -81.5560 120° Southeast 435 501 45,000 -424 Level FlightAware ADS-B
Wed 12:04:02 AM 40.2750 -81.4490 117° Southeast 445 512 44,400 -918 Descending FlightAware ADS-B
Wed 12:04:42 AM 40.2380 -81.3500 116° Southeast 451 519 43,700 -988 Descending FlightAware ADS-B
Wed 12:05:27 AM 40.1970 -81.2420 116° Southeast 453 521 43,000 -988 Descending FlightAware ADS-B
Wed 12:06:07 AM 40.1600 -81.1460 117° Southeast 448 516 42,300 -1,050 Descending FlightAware ADS-B
Wed 12:06:47 AM 40.1240 -81.0500 116° Southeast 441 507 41,600 -988 Descending FlightAware ADS-B
Wed 12:07:32 AM 40.0820 -80.9410 117° Southeast 433 498 40,900 -988 Descending FlightAware ADS-B
Wed 12:08:12 AM 40.0650 -80.8440 103° East 425 489 40,200 -975 Descending FlightAware ADS-B
Wed 12:08:52 AM 40.0490 -80.7450 102° East 416 479 39,600 -847 Descending FlightAware ADS-B
Wed 12:09:37 AM 40.0320 -80.6440 102° East 407 468 39,000 -424 Descending FlightAware ADS-B
Wed 12:10:17 AM 39.9950 -80.5500 117° Southeast 414 476 39,000  Level FlightAware ADS-B
Wed 12:11:02 AM 39.9510 -80.4500 120° Southeast 420 483 39,000  Level FlightAware ADS-B
Wed 12:11:42 AM 39.9130 -80.3650 120° Southeast 424 488 39,000  Level FlightAware ADS-B
Wed 12:12:22 AM 39.8720 -80.2750 121° Southeast 429 494 39,000  Level FlightAware ADS-B
Wed 12:13:02 AM 39.8320 -80.1860 120° Southeast 432 497 39,000  Level FlightAware ADS-B
Wed 12:13:47 AM 39.7870 -80.0870 121° Southeast 437 503 39,000 -667 Level FlightAware ADS-B
Wed 12:14:32 AM 39.7420 -79.9870 120° Southeast 428 493 38,000 -1,624 Descending FlightAware ADS-B
Wed 12:15:12 AM 39.7050 -79.9060 121° Southeast 420 483 36,700 -1,895 Descending FlightAware ADS-B
Wed 12:16:07 AM 39.6520 -79.7890 120° Southeast 421 484 35,000 -1,958 Descending FlightAware ADS-B
Wed 12:16:47 AM 39.6080 -79.6940 121° Southeast 425 489 33,600 -2,047 Descending FlightAware ADS-B
Wed 12:17:32 AM 39.5620 -79.5920 120° Southeast 443 510 32,100 -1,976 Descending FlightAware ADS-B
Wed 12:18:12 AM 39.5220 -79.5070 121° Southeast 443 510 30,800 -2,047 Descending FlightAware ADS-B
Wed 12:18:57 AM 39.4760 -79.4000 119° Southeast 432 497 29,200 -2,047 Descending FlightAware ADS-B
Wed 12:19:37 AM 39.4560 -79.2990 104° East 448 516 27,900 -1,875 Descending FlightAware ADS-B
Wed 12:20:17 AM 39.4390 -79.2050 103° East 454 522 26,700 -1,976 Descending FlightAware ADS-B
Wed 12:21:02 AM 39.4150 -79.0720 103° East 451 519 25,100 -2,118 Descending FlightAware ADS-B
Wed 12:21:42 AM 39.3960 -78.9700 104° East 416 479 23,700 -1,765 Descending FlightAware ADS-B
Wed 12:22:27 AM 39.3780 -78.8680 103° East 385 443 22,600 -1,553 Descending FlightAware ADS-B
Wed 12:23:07 AM 39.3620 -78.7770 103° East 378 435 21,500 -1,906 Descending FlightAware ADS-B
Wed 12:23:52 AM 39.3450 -78.6820 103° East 355 409 19,900 -2,118 Descending FlightAware ADS-B
Wed 12:24:32 AM 39.3300 -78.5990 103° East 351 404 18,500 -2,047 Descending FlightAware ADS-B
Wed 12:25:17 AM 39.3120 -78.5020 103° East 383 441 17,000 -2,047 Descending FlightAware ADS-B
Wed 12:25:57 AM 39.2960 -78.4140 103° East 371 427 15,600 -2,100 Descending FlightAware ADS-B
Wed 12:26:37 AM 39.2790 -78.3310 105° East 349 402 14,200 -2,118 Descending FlightAware ADS-B
Wed 12:27:22 AM 39.2590 -78.2430 106° East 350 403 12,600 -1,835 Descending FlightAware ADS-B
Wed 12:28:02 AM 39.2420 -78.1610 105° East 357 411 11,600 -1,275 Descending FlightAware ADS-B
Wed 12:28:42 AM 39.2250 -78.0780 105° East 362 417 10,900 -1,059 Descending FlightAware ADS-B
Wed 12:29:27 AM 39.2070 -77.9830 104° East 344 396 10,100 -1,100 Descending FlightAware ADS-B
Wed 12:29:42 AM 39.2010 -77.9550 105° East 323 372 9,800 -1,050 Descending FlightAware ADS-B
Wed 12:30:07 AM 39.1930 -77.9110 103° East 290 334 9,400 -982 Descending FlightAware ADS-B
Wed 12:30:37 AM 39.1850 -77.8650 103° East 294 338 8,900 -1,100 Descending FlightAware ADS-B
Wed 12:31:07 AM 39.1760 -77.8100 102° East 276 318 8,300 -1,636 Descending FlightAware ADS-B
Wed 12:31:32 AM 39.1700 -77.7700 101° East 265 305 7,400 -2,182 Descending FlightAware ADS-B
Wed 12:32:02 AM 39.1640 -77.7260 100° East 256 295 6,300 -2,291 Descending FlightAware ADS-B
Wed 12:32:27 AM 39.1580 -77.6860 101° East 255 293 5,300 -1,920 Descending FlightAware ADS-B
Wed 12:32:52 AM 39.1540 -77.6580 100° East 264 304 4,700 -1,680 Descending FlightAware ADS-B
Wed 12:33:17 AM 39.1490 -77.6190 99° East 262 302 3,900 -1,418 Descending FlightAware ADS-B
Wed 12:33:47 AM 39.1430 -77.5750 100° East 237 273 3,400 -1,000 Descending FlightAware ADS-B
Wed 12:34:17 AM 39.1380 -77.5410 101° East 242 278 2,900 -700 Descending FlightAware ADS-B
Wed 12:34:47 AM 39.1320 -77.4950 100° East 230 265 2,700 -200 Descending FlightAware ADS-B
Wed 12:35:17 AM 39.1150 -77.4690 130° Southeast 192 221 2,700 -218 Level FlightAware ADS-B
Wed 12:35:42 AM 39.0940 -77.4580 158° South 182 209 2,500 -750 Descending FlightAware ADS-B
Wed 12:35:57 AM 39.0840 -77.4570 176° South 190 219 2,200 -1,467 Descending FlightAware ADS-B
Wed 12:36:27 AM 39.0490 -77.4580 181° South 161 185 1,400 -1,080 Descending FlightAware ADS-B
Wed 12:36:47 AM 39.0430 -77.4580 180° South 162 186 1,300 -635 Descending FlightAware ADS-B
Wed 12:37:52 AM 38.9990 -77.4590 181° South 130 150 500 -533 Descending FlightAware ADS-B
Wed 12:38:17 AM 38.9850 -77.4590 180° South 130 150 500  Level FlightAware ADS-B
Wed 12:45:00 AM 38.9474 -77.4599 159° South  Level Estimated
Wed 12:46:00 AM 38.9474 -77.4599 159° South  Level Estimated
Wed 12:47:00 AM 38.9474 -77.4599 159° South  Level Estimated
Wed 12:48:00 AM 38.9474 -77.4599 159° South  Level Estimated
Wed 12:49:00 AM 38.9474 -77.4599 159° South  Level Estimated
Wed 12:50:00 AM 38.9474 -77.4599 159° South  Level Estimated

Login

Don't have an account? Register now (free) for customized features, flight alerts, and more!